sensor_id;sensor_type;location;lat;lon;timestamp;pressure;altitude;pressure_sealevel;temperature
24201;BMP280;2801;50.972;7.856;2023-08-30T00:01:16;96949.06;;;13.41
24201;BMP280;2801;50.972;7.856;2023-08-30T00:03:43;96947.50;;;13.40
24201;BMP280;2801;50.972;7.856;2023-08-30T00:06:10;96950.97;;;13.41
24201;BMP280;2801;50.972;7.856;2023-08-30T00:08:37;96947.50;;;13.40
24201;BMP280;2801;50.972;7.856;2023-08-30T00:11:04;96944.88;;;13.44
24201;BMP280;2801;50.972;7.856;2023-08-30T00:13:32;96949.91;;;13.45
24201;BMP280;2801;50.972;7.856;2023-08-30T00:16:00;96947.63;;;13.47
24201;BMP280;2801;50.972;7.856;2023-08-30T00:18:29;96943.38;;;13.46
24201;BMP280;2801;50.972;7.856;2023-08-30T00:20:57;96953.94;;;13.55
24201;BMP280;2801;50.972;7.856;2023-08-30T00:23:24;96948.22;;;13.56
24201;BMP280;2801;50.972;7.856;2023-08-30T00:25:51;96944.81;;;13.59
24201;BMP280;2801;50.972;7.856;2023-08-30T00:28:18;96944.81;;;13.59
24201;BMP280;2801;50.972;7.856;2023-08-30T00:30:45;96941.69;;;13.57
24201;BMP280;2801;50.972;7.856;2023-08-30T00:33:12;96942.47;;;13.58
24201;BMP280;2801;50.972;7.856;2023-08-30T00:35:39;96943.69;;;13.60
24201;BMP280;2801;50.972;7.856;2023-08-30T00:38:06;96939.78;;;13.58
24201;BMP280;2801;50.972;7.856;2023-08-30T00:40:40;96942.13;;;13.59
24201;BMP280;2801;50.972;7.856;2023-08-30T00:43:07;96944.03;;;13.59
24201;BMP280;2801;50.972;7.856;2023-08-30T00:45:37;96936.31;;;13.57
24201;BMP280;2801;50.972;7.856;2023-08-30T00:48:06;96937.50;;;13.60
24201;BMP280;2801;50.972;7.856;2023-08-30T00:50:34;96934.09;;;13.63
24201;BMP280;2801;50.972;7.856;2023-08-30T00:53:04;96928.72;;;13.63
24201;BMP280;2801;50.972;7.856;2023-08-30T00:55:35;96931.06;;;13.64
24201;BMP280;2801;50.972;7.856;2023-08-30T00:58:02;96930.63;;;13.62
24201;BMP280;2801;50.972;7.856;2023-08-30T01:00:30;96931.47;;;13.66
24201;BMP280;2801;50.972;7.856;2023-08-30T01:02:57;96924.63;;;13.69
24201;BMP280;2801;50.972;7.856;2023-08-30T01:05:24;96924.25;;;13.70
24201;BMP280;2801;50.972;7.856;2023-08-30T01:07:52;96924.63;;;13.69
24201;BMP280;2801;50.972;7.856;2023-08-30T01:10:27;96916.94;;;13.71
24201;BMP280;2801;50.972;7.856;2023-08-30T01:13:06;96916.19;;;13.70
24201;BMP280;2801;50.972;7.856;2023-08-30T01:15:38;96911.22;;;13.72
24201;BMP280;2801;50.972;7.856;2023-08-30T01:18:07;96915.81;;;13.72
24201;BMP280;2801;50.972;7.856;2023-08-30T01:20:38;96910.84;;;13.74
24201;BMP280;2801;50.972;7.856;2023-08-30T01:25:57;96909.31;;;13.73
24201;BMP280;2801;50.972;7.856;2023-08-30T01:28:29;96908.09;;;13.70
24201;BMP280;2801;50.972;7.856;2023-08-30T01:30:58;96905.41;;;13.70
24201;BMP280;2801;50.972;7.856;2023-08-30T01:33:26;96909.22;;;13.69
24201;BMP280;2801;50.972;7.856;2023-08-30T01:35:59;96906.88;;;13.68
24201;BMP280;2801;50.972;7.856;2023-08-30T01:38:29;96912.34;;;13.71
24201;BMP280;2801;50.972;7.856;2023-08-30T01:40:59;96903.84;;;13.69
24201;BMP280;2801;50.972;7.856;2023-08-30T01:43:30;96896.47;;;13.66
24201;BMP280;2801;50.972;7.856;2023-08-30T01:46:00;96903.34;;;13.64
24201;BMP280;2801;50.972;7.856;2023-08-30T01:48:28;96906.81;;;13.64
24201;BMP280;2801;50.972;7.856;2023-08-30T01:50:56;96897.94;;;13.64
24201;BMP280;2801;50.972;7.856;2023-08-30T01:53:28;96894.50;;;13.63
24201;BMP280;2801;50.972;7.856;2023-08-30T01:55:55;96898.75;;;13.64
24201;BMP280;2801;50.972;7.856;2023-08-30T01:58:22;96898.78;;;13.68
24201;BMP280;2801;50.972;7.856;2023-08-30T02:00:49;96882.94;;;13.63
24201;BMP280;2801;50.972;7.856;2023-08-30T02:03:16;96891.50;;;13.68
24201;BMP280;2801;50.972;7.856;2023-08-30T02:06:11;96886.13;;;13.68
24201;BMP280;2801;50.972;7.856;2023-08-30T02:09:58;96887.66;;;13.69
24201;BMP280;2801;50.972;7.856;2023-08-30T02:11:55;96886.47;;;13.67
24201;BMP280;2801;50.972;7.856;2023-08-30T02:14:26;96879.09;;;13.64
24201;BMP280;2801;50.972;7.856;2023-08-30T02:16:55;96880.53;;;13.58
24201;BMP280;2801;50.972;7.856;2023-08-30T02:19:23;96874.66;;;13.52
24201;BMP280;2801;50.972;7.856;2023-08-30T02:21:50;96873.47;;;13.50
24201;BMP280;2801;50.972;7.856;2023-08-30T02:24:17;96868.00;;;13.46
24201;BMP280;2801;50.972;7.856;2023-08-30T02:26:44;96877.50;;;13.40
24201;BMP280;2801;50.972;7.856;2023-08-30T02:29:11;96879.69;;;13.35
24201;BMP280;2801;50.972;7.856;2023-08-30T02:31:40;96878.06;;;13.30
24201;BMP280;2801;50.972;7.856;2023-08-30T02:34:07;96877.22;;;13.26
24201;BMP280;2801;50.972;7.856;2023-08-30T02:36:34;96882.84;;;13.21
24201;BMP280;2801;50.972;7.856;2023-08-30T02:39:00;96887.66;;;13.12
24201;BMP280;2801;50.972;7.856;2023-08-30T02:41:27;96881.09;;;13.10
24201;BMP280;2801;50.972;7.856;2023-08-30T02:43:54;96881.09;;;13.10
24201;BMP280;2801;50.972;7.856;2023-08-30T02:46:21;96880.59;;;13.04
24201;BMP280;2801;50.972;7.856;2023-08-30T02:48:48;96878.94;;;13.00
24201;BMP280;2801;50.972;7.856;2023-08-30T02:51:15;96876.59;;;12.98
24201;BMP280;2801;50.972;7.856;2023-08-30T02:53:43;96869.22;;;12.95
24201;BMP280;2801;50.972;7.856;2023-08-30T02:56:12;96874.22;;;12.97
24201;BMP280;2801;50.972;7.856;2023-08-30T02:58:39;96880.75;;;12.96
24201;BMP280;2801;50.972;7.856;2023-08-30T03:01:06;96868.44;;;12.95
24201;BMP280;2801;50.972;7.856;2023-08-30T03:03:33;96863.41;;;12.93
24201;BMP280;2801;50.972;7.856;2023-08-30T03:06:01;96866.09;;;12.93
24201;BMP280;2801;50.972;7.856;2023-08-30T03:08:29;96867.59;;;12.91
24201;BMP280;2801;50.972;7.856;2023-08-30T03:10:56;96868.78;;;12.93
24201;BMP280;2801;50.972;7.856;2023-08-30T03:13:23;96871.53;;;12.97
24201;BMP280;2801;50.972;7.856;2023-08-30T03:15:50;96873.22;;;13.01
24201;BMP280;2801;50.972;7.856;2023-08-30T03:18:17;96876.91;;;12.97
24201;BMP280;2801;50.972;7.856;2023-08-30T03:20:44;96857.00;;;12.98
24201;BMP280;2801;50.972;7.856;2023-08-30T03:23:10;96858.22;;;13.00
24201;BMP280;2801;50.972;7.856;2023-08-30T03:25:37;96865.22;;;13.05
24201;BMP280;2801;50.972;7.856;2023-08-30T03:28:05;96859.91;;;13.08
24201;BMP280;2801;50.972;7.856;2023-08-30T03:30:32;96855.72;;;13.11
24201;BMP280;2801;50.972;7.856;2023-08-30T03:32:59;96858.06;;;13.12
24201;BMP280;2801;50.972;7.856;2023-08-30T03:35:26;96860.06;;;13.15
24201;BMP280;2801;50.972;7.856;2023-08-30T03:37:53;96854.69;;;13.15
24201;BMP280;2801;50.972;7.856;2023-08-30T03:40:21;96865.16;;;13.20
24201;BMP280;2801;50.972;7.856;2023-08-30T03:42:48;96860.97;;;13.23
24201;BMP280;2801;50.972;7.856;2023-08-30T03:45:15;96861.41;;;13.25
24201;BMP280;2801;50.972;7.856;2023-08-30T03:47:42;96863.75;;;13.26
24201;BMP280;2801;50.972;7.856;2023-08-30T03:50:09;96862.19;;;13.25
24201;BMP280;2801;50.972;7.856;2023-08-30T03:52:36;96857.59;;;13.26
24201;BMP280;2801;50.972;7.856;2023-08-30T03:55:04;96859.13;;;13.27
24201;BMP280;2801;50.972;7.856;2023-08-30T03:57:30;96859.56;;;13.29
24201;BMP280;2801;50.972;7.856;2023-08-30T03:59:57;96850.66;;;13.25
24201;BMP280;2801;50.972;7.856;2023-08-30T04:02:24;96852.53;;;13.24
24201;BMP280;2801;50.972;7.856;2023-08-30T04:04:51;96850.66;;;13.25
24201;BMP280;2801;50.972;7.856;2023-08-30T04:07:18;96848.75;;;13.25
24201;BMP280;2801;50.972;7.856;2023-08-30T04:09:45;96844.91;;;13.26
24201;BMP280;2801;50.972;7.856;2023-08-30T04:12:12;96854.53;;;13.27
24201;BMP280;2801;50.972;7.856;2023-08-30T04:14:39;96841.53;;;13.29
24201;BMP280;2801;50.972;7.856;2023-08-30T04:17:06;96838.34;;;13.24
24201;BMP280;2801;50.972;7.856;2023-08-30T04:19:33;96852.69;;;13.31
24201;BMP280;2801;50.972;7.856;2023-08-30T04:21:59;96847.75;;;13.33
24201;BMP280;2801;50.972;7.856;2023-08-30T04:24:26;96843.84;;;13.31
24201;BMP280;2801;50.972;7.856;2023-08-30T04:26:53;96842.72;;;13.32
24201;BMP280;2801;50.972;7.856;2023-08-30T04:29:20;96846.59;;;13.34
24201;BMP280;2801;50.972;7.856;2023-08-30T04:31:47;96840.88;;;13.36
24201;BMP280;2801;50.972;7.856;2023-08-30T04:34:14;96848.59;;;13.37
24201;BMP280;2801;50.972;7.856;2023-08-30T04:36:42;96847.47;;;13.38
24201;BMP280;2801;50.972;7.856;2023-08-30T04:39:09;96846.31;;;13.39
24201;BMP280;2801;50.972;7.856;2023-08-30T04:41:36;96846.41;;;13.43
24201;BMP280;2801;50.972;7.856;2023-08-30T04:44:04;96843.72;;;13.43
24201;BMP280;2801;50.972;7.856;2023-08-30T04:46:31;96851.69;;;13.39
24201;BMP280;2801;50.972;7.856;2023-08-30T04:48:58;96836.97;;;13.33
24201;BMP280;2801;50.972;7.856;2023-08-30T04:51:25;96849.44;;;13.41
24201;BMP280;2801;50.972;7.856;2023-08-30T04:53:52;96855.66;;;13.45
24201;BMP280;2801;50.972;7.856;2023-08-30T04:56:19;96841.00;;;13.43
24201;BMP280;2801;50.972;7.856;2023-08-30T04:58:46;96850.28;;;13.45
24201;BMP280;2801;50.972;7.856;2023-08-30T05:01:12;96845.69;;;13.46
24201;BMP280;2801;50.972;7.856;2023-08-30T05:03:40;96848.44;;;13.49
24201;BMP280;2801;50.972;7.856;2023-08-30T05:06:08;96844.34;;;13.55
24201;BMP280;2801;50.972;7.856;2023-08-30T05:08:35;96835.13;;;13.56
24201;BMP280;2801;50.972;7.856;2023-08-30T05:11:01;96830.94;;;13.59
24201;BMP280;2801;50.972;7.856;2023-08-30T05:13:32;96828.72;;;13.64
24201;BMP280;2801;50.972;7.856;2023-08-30T05:15:59;96827.22;;;13.67
24201;BMP280;2801;50.972;7.856;2023-08-30T05:18:26;96825.38;;;13.71
24201;BMP280;2801;50.972;7.856;2023-08-30T05:20:53;96829.63;;;13.72
24201;BMP280;2801;50.972;7.856;2023-08-30T05:23:20;96831.69;;;13.78
24201;BMP280;2801;50.972;7.856;2023-08-30T05:25:47;96836.31;;;13.81
24201;BMP280;2801;50.972;7.856;2023-08-30T05:28:14;96832.44;;;13.79
24201;BMP280;2801;50.972;7.856;2023-08-30T05:30:43;96838.31;;;13.84
24201;BMP280;2801;50.972;7.856;2023-08-30T05:33:11;96828.69;;;13.83
24201;BMP280;2801;50.972;7.856;2023-08-30T05:35:37;96824.44;;;13.82
24201;BMP280;2801;50.972;7.856;2023-08-30T05:38:04;96825.28;;;13.86
24201;BMP280;2801;50.972;7.856;2023-08-30T05:40:32;96824.13;;;13.87
24201;BMP280;2801;50.972;7.856;2023-08-30T05:42:59;96820.72;;;13.90
24201;BMP280;2801;50.972;7.856;2023-08-30T05:45:26;96823.09;;;13.95
24201;BMP280;2801;50.972;7.856;2023-08-30T05:47:52;96818.16;;;13.97
24201;BMP280;2801;50.972;7.856;2023-08-30T05:50:19;96811.97;;;13.97
24201;BMP280;2801;50.972;7.856;2023-08-30T05:52:46;96814.66;;;13.97
24201;BMP280;2801;50.972;7.856;2023-08-30T05:55:13;96820.53;;;14.02
24201;BMP280;2801;50.972;7.856;2023-08-30T05:57:40;96813.63;;;14.05
24201;BMP280;2801;50.972;7.856;2023-08-30T06:00:08;96801.66;;;14.02
24201;BMP280;2801;50.972;7.856;2023-08-30T06:02:35;96793.16;;;14.00
24201;BMP280;2801;50.972;7.856;2023-08-30T06:05:02;96801.19;;;13.97
24201;BMP280;2801;50.972;7.856;2023-08-30T06:07:29;96803.16;;;14.00
24201;BMP280;2801;50.972;7.856;2023-08-30T06:09:57;96804.78;;;14.04
24201;BMP280;2801;50.972;7.856;2023-08-30T06:12:25;96809.09;;;14.09
24201;BMP280;2801;50.972;7.856;2023-08-30T06:14:53;96806.03;;;14.10
24201;BMP280;2801;50.972;7.856;2023-08-30T06:17:20;96807.22;;;14.13
24201;BMP280;2801;50.972;7.856;2023-08-30T06:19:47;96799.94;;;14.13
24201;BMP280;2801;50.972;7.856;2023-08-30T06:22:14;96803.09;;;14.19
24201;BMP280;2801;50.972;7.856;2023-08-30T06:24:43;96805.16;;;14.25
24201;BMP280;2801;50.972;7.856;2023-08-30T06:27:10;96803.28;;;14.29
24201;BMP280;2801;50.972;7.856;2023-08-30T06:29:37;96797.97;;;14.33
24201;BMP280;2801;50.972;7.856;2023-08-30T06:32:05;96800.81;;;14.43
24201;BMP280;2801;50.972;7.856;2023-08-30T06:34:32;96795.88;;;14.49
24201;BMP280;2801;50.972;7.856;2023-08-30T06:36:59;96792.13;;;14.57
24201;BMP280;2801;50.972;7.856;2023-08-30T06:39:32;96793.38;;;14.63
24201;BMP280;2801;50.972;7.856;2023-08-30T06:41:59;96787.69;;;14.71
24201;BMP280;2801;50.972;7.856;2023-08-30T06:44:26;96792.00;;;14.76
24201;BMP280;2801;50.972;7.856;2023-08-30T06:46:53;96784.03;;;14.87
24201;BMP280;2801;50.972;7.856;2023-08-30T06:49:21;96780.69;;;14.93
24201;BMP280;2801;50.972;7.856;2023-08-30T06:51:48;96776.47;;;14.96
24201;BMP280;2801;50.972;7.856;2023-08-30T06:54:15;96774.69;;;15.07
24201;BMP280;2801;50.972;7.856;2023-08-30T06:56:57;96779.84;;;15.22
24201;BMP280;2801;50.972;7.856;2023-08-30T06:59:25;96774.97;;;15.31
24201;BMP280;2801;50.972;7.856;2023-08-30T07:01:52;96768.09;;;15.37
24201;BMP280;2801;50.972;7.856;2023-08-30T07:04:19;96772.28;;;15.35
24201;BMP280;2801;50.972;7.856;2023-08-30T07:06:47;96766.63;;;15.43
24201;BMP280;2801;50.972;7.856;2023-08-30T07:09:14;96761.69;;;15.52
24201;BMP280;2801;50.972;7.856;2023-08-30T07:11:43;96757.50;;;15.58
24201;BMP280;2801;50.972;7.856;2023-08-30T07:14:13;96752.13;;;15.62
24201;BMP280;2801;50.972;7.856;2023-08-30T07:16:41;96747.59;;;15.73
24201;BMP280;2801;50.972;7.856;2023-08-30T07:19:08;96754.13;;;15.68
24201;BMP280;2801;50.972;7.856;2023-08-30T07:21:36;96751.59;;;15.86
24201;BMP280;2801;50.972;7.856;2023-08-30T07:24:07;96744.72;;;15.95
24201;BMP280;2801;50.972;7.856;2023-08-30T07:26:35;96740.91;;;16.03
24201;BMP280;2801;50.972;7.856;2023-08-30T07:29:03;96742.09;;;16.09
24201;BMP280;2801;50.972;7.856;2023-08-30T07:31:33;96736.00;;;16.23
24201;BMP280;2801;50.972;7.856;2023-08-30T07:34:00;96732.94;;;16.24
24201;BMP280;2801;50.972;7.856;2023-08-30T07:36:28;96738.06;;;16.36
24201;BMP280;2801;50.972;7.856;2023-08-30T07:39:13;96738.09;;;16.43
24201;BMP280;2801;50.972;7.856;2023-08-30T07:41:40;96737.81;;;16.55
24201;BMP280;2801;50.972;7.856;2023-08-30T07:44:07;96737.50;;;16.67
24201;BMP280;2801;50.972;7.856;2023-08-30T07:46:34;96732.91;;;16.82
24201;BMP280;2801;50.972;7.856;2023-08-30T07:49:02;96726.03;;;16.98
24201;BMP280;2801;50.972;7.856;2023-08-30T07:51:29;96723.34;;;17.09
24201;BMP280;2801;50.972;7.856;2023-08-30T07:53:57;96732.63;;;17.11
24201;BMP280;2801;50.972;7.856;2023-08-30T07:56:24;96734.16;;;17.09
24201;BMP280;2801;50.972;7.856;2023-08-30T07:58:51;96731.09;;;17.10
24201;BMP280;2801;50.972;7.856;2023-08-30T08:01:18;96737.28;;;17.14
24201;BMP280;2801;50.972;7.856;2023-08-30T08:03:44;96740.41;;;17.20
24201;BMP280;2801;50.972;7.856;2023-08-30T08:06:26;96727.66;;;17.27
24201;BMP280;2801;50.972;7.856;2023-08-30T08:08:53;96731.91;;;17.32
24201;BMP280;2801;50.972;7.856;2023-08-30T08:11:20;96714.53;;;17.33
24201;BMP280;2801;50.972;7.856;2023-08-30T08:13:47;96729.66;;;17.44
24201;BMP280;2801;50.972;7.856;2023-08-30T08:16:14;96726.56;;;17.46
24201;BMP280;2801;50.972;7.856;2023-08-30T08:18:41;96731.22;;;17.52
24201;BMP280;2801;50.972;7.856;2023-08-30T08:21:07;96726.59;;;17.60
24201;BMP280;2801;50.972;7.856;2023-08-30T08:23:35;96730.06;;;17.67
24201;BMP280;2801;50.972;7.856;2023-08-30T08:26:02;96730.47;;;17.76
24201;BMP280;2801;50.972;7.856;2023-08-30T08:28:29;96729.69;;;17.86
24201;BMP280;2801;50.972;7.856;2023-08-30T08:30:56;96722.72;;;17.85
24201;BMP280;2801;50.972;7.856;2023-08-30T08:33:23;96716.53;;;17.92
24201;BMP280;2801;50.972;7.856;2023-08-30T08:35:53;96726.59;;;17.88
24201;BMP280;2801;50.972;7.856;2023-08-30T08:38:20;96723.13;;;17.94
24201;BMP280;2801;50.972;7.856;2023-08-30T08:40:48;96726.59;;;18.02
24201;BMP280;2801;50.972;7.856;2023-08-30T08:43:17;96724.28;;;18.07
24201;BMP280;2801;50.972;7.856;2023-08-30T08:45:45;96723.50;;;18.14
24201;BMP280;2801;50.972;7.856;2023-08-30T08:48:14;96707.97;;;18.18
24201;BMP280;2801;50.972;7.856;2023-08-30T08:50:42;96709.94;;;18.35
24201;BMP280;2801;50.972;7.856;2023-08-30T08:53:10;96708.31;;;18.55
24201;BMP280;2801;50.972;7.856;2023-08-30T08:55:38;96705.16;;;18.78
24201;BMP280;2801;50.972;7.856;2023-08-30T08:58:07;96702.00;;;18.86
24201;BMP280;2801;50.972;7.856;2023-08-30T09:00:34;96704.72;;;18.86
24201;BMP280;2801;50.972;7.856;2023-08-30T09:03:02;96702.41;;;18.85
24201;BMP280;2801;50.972;7.856;2023-08-30T09:05:32;96700.88;;;18.80
24201;BMP280;2801;50.972;7.856;2023-08-30T09:08:02;96704.00;;;18.79
24201;BMP280;2801;50.972;7.856;2023-08-30T09:10:31;96715.59;;;18.83
24201;BMP280;2801;50.972;7.856;2023-08-30T09:13:00;96706.28;;;18.87
24201;BMP280;2801;50.972;7.856;2023-08-30T09:15:34;96709.78;;;18.81
24201;BMP280;2801;50.972;7.856;2023-08-30T09:18:01;96697.78;;;18.78
24201;BMP280;2801;50.972;7.856;2023-08-30T09:20:29;96703.22;;;18.71
24201;BMP280;2801;50.972;7.856;2023-08-30T09:22:55;96714.84;;;18.75
24201;BMP280;2801;50.972;7.856;2023-08-30T09:25:25;96705.91;;;18.85
24201;BMP280;2801;50.972;7.856;2023-08-30T09:27:59;96710.53;;;18.88
24201;BMP280;2801;50.972;7.856;2023-08-30T09:30:27;96702.34;;;18.99
24201;BMP280;2801;50.972;7.856;2023-08-30T09:33:00;96704.69;;;18.97
24201;BMP280;2801;50.972;7.856;2023-08-30T09:35:27;96701.56;;;19.02
24201;BMP280;2801;50.972;7.856;2023-08-30T09:37:55;96701.19;;;18.96
24201;BMP280;2801;50.972;7.856;2023-08-30T09:40:22;96705.44;;;19.01
24201;BMP280;2801;50.972;7.856;2023-08-30T09:42:49;96704.69;;;18.97
24201;BMP280;2801;50.972;7.856;2023-08-30T09:45:33;96689.94;;;18.98
24201;BMP280;2801;50.972;7.856;2023-08-30T09:48:01;96686.81;;;19.03
24201;BMP280;2801;50.972;7.856;2023-08-30T09:50:36;96691.81;;;19.11
24201;BMP280;2801;50.972;7.856;2023-08-30T09:53:08;96678.97;;;19.15
24201;BMP280;2801;50.972;7.856;2023-08-30T09:55:37;96675.81;;;19.31
24201;BMP280;2801;50.972;7.856;2023-08-30T09:58:05;96678.47;;;19.38
24201;BMP280;2801;50.972;7.856;2023-08-30T10:00:33;96671.00;;;19.52
24201;BMP280;2801;50.972;7.856;2023-08-30T10:03:00;96673.25;;;19.64
24201;BMP280;2801;50.972;7.856;2023-08-30T10:05:48;96651.94;;;19.59
24201;BMP280;2801;50.972;7.856;2023-08-30T10:08:16;96663.84;;;19.76
24201;BMP280;2801;50.972;7.856;2023-08-30T10:10:43;96654.13;;;19.75
24201;BMP280;2801;50.972;7.856;2023-08-30T10:13:11;96649.41;;;19.79
24201;BMP280;2801;50.972;7.856;2023-08-30T10:15:44;96647.81;;;19.85
24201;BMP280;2801;50.972;7.856;2023-08-30T10:18:19;96650.94;;;19.87
24201;BMP280;2801;50.972;7.856;2023-08-30T10:20:53;96643.50;;;19.91
24201;BMP280;2801;50.972;7.856;2023-08-30T10:23:22;96646.66;;;19.86
24201;BMP280;2801;50.972;7.856;2023-08-30T10:25:52;96641.03;;;20.03
24201;BMP280;2801;50.972;7.856;2023-08-30T10:28:23;96632.97;;;20.33
24201;BMP280;2801;50.972;7.856;2023-08-30T10:30:52;96639.81;;;20.48
24201;BMP280;2801;50.972;7.856;2023-08-30T10:33:19;96635.22;;;20.75
24201;BMP280;2801;50.972;7.856;2023-08-30T10:35:49;96630.03;;;20.84
24201;BMP280;2801;50.972;7.856;2023-08-30T10:38:28;96622.03;;;20.70
24201;BMP280;2801;50.972;7.856;2023-08-30T10:40:58;96620.25;;;20.57
24201;BMP280;2801;50.972;7.856;2023-08-30T10:43:35;96629.06;;;20.68
24201;BMP280;2801;50.972;7.856;2023-08-30T10:46:04;96625.16;;;20.69
24201;BMP280;2801;50.972;7.856;2023-08-30T10:48:38;96624.09;;;20.63
24201;BMP280;2801;50.972;7.856;2023-08-30T10:51:35;96621.72;;;20.65
24201;BMP280;2801;50.972;7.856;2023-08-30T10:54:16;96624.19;;;20.52
24201;BMP280;2801;50.972;7.856;2023-08-30T10:56:57;96620.25;;;20.57
24201;BMP280;2801;50.972;7.856;2023-08-30T10:59:28;96622.53;;;20.62
24201;BMP280;2801;50.972;7.856;2023-08-30T11:02:00;96612.47;;;20.59
24201;BMP280;2801;50.972;7.856;2023-08-30T11:04:28;96606.56;;;20.64
24201;BMP280;2801;50.972;7.856;2023-08-30T11:06:56;96611.69;;;20.58
24201;BMP280;2801;50.972;7.856;2023-08-30T11:09:24;96603.97;;;20.53
24201;BMP280;2801;50.972;7.856;2023-08-30T11:11:51;96596.13;;;20.59
24201;BMP280;2801;50.972;7.856;2023-08-30T11:14:19;96592.94;;;20.64
24201;BMP280;2801;50.972;7.856;2023-08-30T11:16:46;96592.50;;;20.69
24201;BMP280;2801;50.972;7.856;2023-08-30T11:19:13;96598.75;;;20.66
24201;BMP280;2801;50.972;7.856;2023-08-30T11:21:44;96600.34;;;20.63
24201;BMP280;2801;50.972;7.856;2023-08-30T11:24:12;96599.66;;;20.56
24201;BMP280;2801;50.972;7.856;2023-08-30T11:26:39;96596.63;;;20.50
24201;BMP280;2801;50.972;7.856;2023-08-30T11:29:07;96597.81;;;20.49
24201;BMP280;2801;50.972;7.856;2023-08-30T11:31:35;96597.56;;;20.37
24201;BMP280;2801;50.972;7.856;2023-08-30T11:34:02;96596.59;;;20.20
24201;BMP280;2801;50.972;7.856;2023-08-30T11:36:35;96584.22;;;20.09
24201;BMP280;2801;50.972;7.856;2023-08-30T11:39:02;96587.88;;;19.95
24201;BMP280;2801;50.972;7.856;2023-08-30T11:41:31;96587.22;;;19.84
24201;BMP280;2801;50.972;7.856;2023-08-30T11:43:59;96583.03;;;19.76
24201;BMP280;2801;50.972;7.856;2023-08-30T11:46:26;96584.97;;;19.76
24201;BMP280;2801;50.972;7.856;2023-08-30T11:48:53;96587.03;;;19.65
24201;BMP280;2801;50.972;7.856;2023-08-30T11:51:20;96594.91;;;19.52
24201;BMP280;2801;50.972;7.856;2023-08-30T11:53:48;96589.13;;;19.43
24201;BMP280;2801;50.972;7.856;2023-08-30T11:56:16;96591.59;;;19.27
24201;BMP280;2801;50.972;7.856;2023-08-30T11:58:44;96594.38;;;19.17
24201;BMP280;2801;50.972;7.856;2023-08-30T12:01:12;96597.59;;;18.98
24201;BMP280;2801;50.972;7.856;2023-08-30T12:03:40;96593.88;;;18.67
24201;BMP280;2801;50.972;7.856;2023-08-30T12:06:11;96599.00;;;18.51
24201;BMP280;2801;50.972;7.856;2023-08-30T12:08:39;96604.88;;;18.36
24201;BMP280;2801;50.972;7.856;2023-08-30T12:11:20;96606.03;;;18.31
24201;BMP280;2801;50.972;7.856;2023-08-30T12:13:47;96600.97;;;18.33
24201;BMP280;2801;50.972;7.856;2023-08-30T12:16:18;96602.91;;;18.43
24201;BMP280;2801;50.972;7.856;2023-08-30T12:18:45;96607.53;;;18.50
24201;BMP280;2801;50.972;7.856;2023-08-30T12:21:13;96602.88;;;18.54
24201;BMP280;2801;50.972;7.856;2023-08-30T12:23:41;96600.53;;;18.56
24201;BMP280;2801;50.972;7.856;2023-08-30T12:26:10;96594.31;;;18.62
24201;BMP280;2801;50.972;7.856;2023-08-30T12:28:40;96591.63;;;18.59
24201;BMP280;2801;50.972;7.856;2023-08-30T12:31:07;96593.91;;;18.60
24201;BMP280;2801;50.972;7.856;2023-08-30T12:33:35;96584.22;;;18.63
24201;BMP280;2801;50.972;7.856;2023-08-30T12:36:03;96585.41;;;18.58
24201;BMP280;2801;50.972;7.856;2023-08-30T12:38:30;96578.44;;;18.57
24201;BMP280;2801;50.972;7.856;2023-08-30T12:40:57;96578.41;;;18.61
24201;BMP280;2801;50.972;7.856;2023-08-30T12:43:24;96579.19;;;18.61
24201;BMP280;2801;50.972;7.856;2023-08-30T12:45:51;96578.78;;;18.66
24201;BMP280;2801;50.972;7.856;2023-08-30T12:48:19;96578.81;;;18.63
24201;BMP280;2801;50.972;7.856;2023-08-30T12:50:48;96578.84;;;18.56
24201;BMP280;2801;50.972;7.856;2023-08-30T12:53:15;96583.13;;;18.50
24201;BMP280;2801;50.972;7.856;2023-08-30T12:55:45;96584.72;;;18.40
24201;BMP280;2801;50.972;7.856;2023-08-30T12:58:12;96580.09;;;18.19
24201;BMP280;2801;50.972;7.856;2023-08-30T13:00:40;96579.75;;;18.07
24201;BMP280;2801;50.972;7.856;2023-08-30T13:03:08;96576.69;;;17.98
24201;BMP280;2801;50.972;7.856;2023-08-30T13:05:35;96578.63;;;17.90
24201;BMP280;2801;50.972;7.856;2023-08-30T13:08:03;96576.69;;;17.91
24201;BMP280;2801;50.972;7.856;2023-08-30T13:10:30;96572.47;;;17.83
24201;BMP280;2801;50.972;7.856;2023-08-30T13:12:58;96574.38;;;17.82
24201;BMP280;2801;50.972;7.856;2023-08-30T13:15:25;96584.91;;;17.63
24201;BMP280;2801;50.972;7.856;2023-08-30T13:17:53;96584.50;;;17.57
24201;BMP280;2801;50.972;7.856;2023-08-30T13:20:20;96580.66;;;17.48
24201;BMP280;2801;50.972;7.856;2023-08-30T13:22:47;96591.06;;;17.39
24201;BMP280;2801;50.972;7.856;2023-08-30T13:25:14;96594.91;;;17.24
24201;BMP280;2801;50.972;7.856;2023-08-30T13:27:41;96587.19;;;17.12
24201;BMP280;2801;50.972;7.856;2023-08-30T13:30:08;96581.00;;;17.04
24201;BMP280;2801;50.972;7.856;2023-08-30T13:32:35;96578.28;;;16.97
24201;BMP280;2801;50.972;7.856;2023-08-30T13:35:02;96592.56;;;16.94
24201;BMP280;2801;50.972;7.856;2023-08-30T13:37:29;96587.91;;;16.84
24201;BMP280;2801;50.972;7.856;2023-08-30T13:39:56;96587.13;;;16.77
24201;BMP280;2801;50.972;7.856;2023-08-30T13:42:23;96576.66;;;16.61
24201;BMP280;2801;50.972;7.856;2023-08-30T13:44:51;96584.75;;;16.58
24201;BMP280;2801;50.972;7.856;2023-08-30T13:47:18;96583.56;;;16.48
24201;BMP280;2801;50.972;7.856;2023-08-30T13:49:45;96590.91;;;16.48
24201;BMP280;2801;50.972;7.856;2023-08-30T13:52:13;96590.47;;;16.39
24201;BMP280;2801;50.972;7.856;2023-08-30T13:54:39;96592.38;;;16.38
24201;BMP280;2801;50.972;7.856;2023-08-30T13:57:06;96593.56;;;16.41
24201;BMP280;2801;50.972;7.856;2023-08-30T13:59:33;96594.31;;;16.34
24201;BMP280;2801;50.972;7.856;2023-08-30T14:02:03;96595.09;;;16.35
24201;BMP280;2801;50.972;7.856;2023-08-30T14:04:31;96585.78;;;16.32
24201;BMP280;2801;50.972;7.856;2023-08-30T14:06:59;96589.69;;;16.38
24201;BMP280;2801;50.972;7.856;2023-08-30T14:09:26;96586.66;;;16.50
24201;BMP280;2801;50.972;7.856;2023-08-30T14:11:53;96582.81;;;16.51
24201;BMP280;2801;50.972;7.856;2023-08-30T14:14:22;96589.81;;;16.59
24201;BMP280;2801;50.972;7.856;2023-08-30T14:16:49;96587.09;;;16.59
24201;BMP280;2801;50.972;7.856;2023-08-30T14:19:16;96593.63;;;16.55
24201;BMP280;2801;50.972;7.856;2023-08-30T14:21:44;96587.78;;;16.42
24201;BMP280;2801;50.972;7.856;2023-08-30T14:24:11;96596.59;;;16.29
24201;BMP280;2801;50.972;7.856;2023-08-30T14:26:38;96599.69;;;16.27
24201;BMP280;2801;50.972;7.856;2023-08-30T14:29:05;96601.63;;;16.27
24201;BMP280;2801;50.972;7.856;2023-08-30T14:31:35;96595.03;;;16.24